Time;durP1;ratioP1;P1;durP2;ratioP2;P2;SDS_P1;SDS_P2;PMS_P1;PMS_P2;Temp;Humidity;BMP_temperature;BMP_pressure;BME280_temperature;BME280_humidity;BME280_pressure;Samples;Min_cycle;Max_cycle;Signal;HPM_P1;HPM_P2
2022/09/01 00:00:07;;;;;;;2.38;1.02;;;16.80;99.90;;;;;;5054391;28;20444;-37
2022/09/01 00:02:34;;;;;;;2.67;1.80;;;16.80;99.90;;;;;;5055533;28;20041;-35
2022/09/01 00:05:00;;;;;;;1.85;1.00;;;16.80;99.90;;;;;;5078224;28;20036;-37
2022/09/01 00:07:33;;;;;;;4.55;0.95;;;16.70;99.90;;;;;;5069261;28;20020;-38
2022/09/01 00:10:00;;;;;;;2.80;1.10;;;16.60;99.90;;;;;;5061721;28;20031;-39
2022/09/01 00:12:27;;;;;;;0.82;0.80;;;16.60;99.90;;;;;;5064440;28;20043;-40
2022/09/01 00:14:53;;;;;;;2.13;1.23;;;16.60;99.90;;;;;;5069227;28;20020;-38
2022/09/01 00:17:19;;;;;;;1.58;0.77;;;16.60;99.90;;;;;;5069039;28;20115;-34
2022/09/01 00:19:44;;;;;;;0.80;0.70;;;16.60;99.90;;;;;;5062228;28;20028;-39
2022/09/01 00:22:10;;;;;;;5.43;0.93;;;16.50;99.90;;;;;;5065150;28;20108;-33
2022/09/01 00:24:36;;;;;;;2.72;1.13;;;16.60;99.90;;;;;;5061950;28;20229;-34
2022/09/01 00:27:02;;;;;;;1.88;0.50;;;16.50;99.90;;;;;;5063785;28;20472;-31
2022/09/01 00:29:28;;;;;;;5.55;0.75;;;16.50;99.90;;;;;;5059862;28;20036;-34
2022/09/01 00:31:54;;;;;;;3.58;1.10;;;16.50;99.90;;;;;;5066882;28;20087;-37
2022/09/01 00:34:20;;;;;;;1.77;1.08;;;16.50;99.90;;;;;;5063616;28;20035;-34
2022/09/01 00:36:46;;;;;;;2.95;1.48;;;16.50;99.90;;;;;;5067808;28;20021;-35
2022/09/01 00:39:12;;;;;;;1.77;0.95;;;16.40;99.90;;;;;;5061697;28;20108;-31
2022/09/01 00:41:41;;;;;;;3.67;0.90;;;16.40;99.90;;;;;;5072106;28;20552;-34
2022/09/01 00:44:13;;;;;;;0.95;0.65;;;16.40;99.90;;;;;;5064807;28;20025;-36
2022/09/01 00:46:50;;;;;;;3.42;1.15;;;16.40;99.90;;;;;;5060537;28;20037;-34
2022/09/01 00:49:25;;;;;;;0.88;0.88;;;16.30;99.90;;;;;;5058170;28;20074;-32
2022/09/01 00:51:54;;;;;;;3.30;1.40;;;16.30;99.90;;;;;;5067270;28;20021;-35
2022/09/01 00:54:27;;;;;;;3.00;1.30;;;16.30;99.90;;;;;;5067318;28;20021;-32
2022/09/01 00:56:54;;;;;;;1.48;0.90;;;16.30;99.90;;;;;;5060389;28;20036;-34
2022/09/01 00:59:24;;;;;;;2.70;1.17;;;16.30;99.90;;;;;;5063479;28;20045;-32
2022/09/01 01:01:50;;;;;;;2.17;1.08;;;16.30;99.90;;;;;;5062198;28;20040;-36
2022/09/01 01:04:16;;;;;;;2.63;0.88;;;16.20;99.90;;;;;;5063550;28;20028;-37
2022/09/01 01:06:49;;;;;;;1.80;1.10;;;16.20;99.90;;;;;;5057491;28;20070;-33
2022/09/01 01:09:20;;;;;;;1.35;1.15;;;16.20;99.90;;;;;;5070777;28;20109;-37
2022/09/01 01:11:47;;;;;;;1.45;0.98;;;16.10;99.90;;;;;;5067308;28;20024;-41
2022/09/01 01:14:16;;;;;;;6.65;1.38;;;16.10;99.90;;;;;;5068802;28;20511;-37
2022/09/01 01:16:47;;;;;;;1.00;0.90;;;16.00;99.90;;;;;;5057705;28;20473;-38
2022/09/01 01:24:59;;;;;;;1.02;1.00;;;15.90;99.90;;;;;;5065201;28;20044;-34
2022/09/01 01:27:30;;;;;;;5.20;1.50;;;15.90;99.90;;;;;;5059450;28;20050;-39
2022/09/01 01:29:56;;;;;;;4.13;0.90;;;15.80;99.90;;;;;;5064350;28;20229;-36
2022/09/01 01:32:22;;;;;;;1.98;1.23;;;15.80;99.90;;;;;;5061058;28;20025;-36
2022/09/01 01:34:48;;;;;;;4.57;1.30;;;15.80;99.90;;;;;;5065293;28;20098;-40
2022/09/01 01:37:13;;;;;;;2.90;0.98;;;15.70;99.90;;;;;;5063683;28;20067;-36
2022/09/01 01:39:41;;;;;;;5.55;1.55;;;15.70;99.90;;;;;;5059863;28;20499;-35
2022/09/01 01:42:08;;;;;;;3.38;1.17;;;15.70;99.90;;;;;;5057191;28;20416;-31
2022/09/01 01:44:37;;;;;;;10.07;1.40;;;15.70;99.90;;;;;;5052380;28;20397;-38
2022/09/01 01:47:11;;;;;;;1.98;0.95;;;15.70;99.90;;;;;;5065522;28;20032;-34
2022/09/01 01:49:42;;;;;;;1.30;1.20;;;15.70;99.90;;;;;;5057308;28;20078;-37
2022/09/01 01:52:27;;;;;;;1.67;1.25;;;15.60;99.90;;;;;;5059741;28;20575;-39
2022/09/01 01:54:53;;;;;;;2.47;1.30;;;15.60;99.90;;;;;;5055694;28;20032;-35
2022/09/01 01:57:18;;;;;;;2.15;1.30;;;15.70;99.90;;;;;;5068531;28;20028;-38
2022/09/01 01:59:45;;;;;;;2.22;1.35;;;15.70;99.90;;;;;;5070070;28;20409;-45
2022/09/01 02:02:11;;;;;;;2.55;1.02;;;15.70;99.90;;;;;;5070302;28;20536;-36
2022/09/01 02:04:39;;;;;;;3.25;1.30;;;15.70;99.90;;;;;;5066483;28;20059;-33
2022/09/01 02:07:10;;;;;;;1.58;1.30;;;15.70;99.90;;;;;;5063496;28;20031;-42
2022/09/01 02:09:38;;;;;;;2.50;1.20;;;15.70;99.90;;;;;;5071373;28;20513;-55
2022/09/01 02:12:04;;;;;;;;;;;15.70;99.90;;;;;;5067283;28;20040;-37
2022/09/01 02:14:29;;;;;;;2.72;1.00;;;15.70;99.90;;;;;;5065566;28;20272;-38
2022/09/01 02:16:55;;;;;;;5.25;1.75;;;15.70;99.90;;;;;;5067932;28;20032;-33
2022/09/01 02:19:20;;;;;;;1.05;0.98;;;15.70;99.90;;;;;;5073182;28;20020;-36
2022/09/01 02:21:52;;;;;;;6.30;1.27;;;15.70;99.90;;;;;;5067223;28;20550;-35
2022/09/01 02:24:17;;;;;;;4.85;1.15;;;15.60;99.90;;;;;;5066853;28;20037;-34
2022/09/01 02:26:46;;;;;;;1.98;1.45;;;15.60;99.90;;;;;;5066266;28;20051;-32
2022/09/01 02:29:25;;;;;;;1.65;1.30;;;15.60;99.90;;;;;;5072168;28;20029;-33
2022/09/01 02:31:53;;;;;;;5.05;1.42;;;15.60;99.90;;;;;;5082578;28;20020;-36
2022/09/01 02:34:20;;;;;;;2.13;0.93;;;15.50;99.90;;;;;;5068833;28;20047;-35
2022/09/01 02:36:48;;;;;;;1.38;1.27;;;15.50;99.90;;;;;;5064385;28;20595;-34
2022/09/01 02:39:35;;;;;;;1.35;0.90;;;15.50;99.90;;;;;;5069950;28;20504;-37
2022/09/01 02:42:01;;;;;;;2.75;1.52;;;15.50;99.90;;;;;;5067598;28;20094;-36
2022/09/01 02:44:29;;;;;;;5.10;1.52;;;15.50;99.90;;;;;;5065696;28;20500;-39
2022/09/01 02:46:57;;;;;;;1.25;1.00;;;15.50;99.90;;;;;;5066744;28;20029;-34
2022/09/01 02:49:27;;;;;;;3.58;1.10;;;15.40;99.90;;;;;;5069251;28;20021;-33
2022/09/01 02:54:37;;;;;;;1.05;0.95;;;15.40;99.90;;;;;;5063939;28;20043;-33
2022/09/01 02:57:23;;;;;;;1.65;1.25;;;15.40;99.90;;;;;;5062512;28;20036;-36
2022/09/01 02:59:49;;;;;;;1.50;1.40;;;15.30;99.90;;;;;;5059950;28;20057;-34
2022/09/01 03:02:14;;;;;;;2.30;1.27;;;15.30;99.90;;;;;;5063609;28;20194;-34
2022/09/01 03:04:40;;;;;;;1.65;1.20;;;15.30;99.90;;;;;;5068289;28;20027;-39
2022/09/01 03:07:26;;;;;;;4.78;1.40;;;15.30;99.90;;;;;;5063910;28;20112;-37
2022/09/01 03:09:52;;;;;;;1.25;1.15;;;15.30;99.90;;;;;;5065016;28;20489;-37
2022/09/01 03:12:18;;;;;;;2.78;1.10;;;15.20;99.90;;;;;;5054510;28;20099;-38
2022/09/01 03:14:44;;;;;;;2.80;1.42;;;15.30;99.90;;;;;;5067127;28;20031;-45
2022/09/01 03:17:10;;;;;;;3.67;1.20;;;15.20;99.90;;;;;;5068020;28;20029;-37
2022/09/01 03:19:40;;;;;;;1.15;1.05;;;15.30;99.90;;;;;;5076570;28;20516;-38
2022/09/01 03:22:06;;;;;;;1.75;1.27;;;15.30;99.90;;;;;;5071641;28;20504;-39
2022/09/01 03:24:32;;;;;;;4.10;1.50;;;15.30;99.90;;;;;;5071614;28;20020;-35
2022/09/01 03:26:57;;;;;;;2.92;1.30;;;15.30;99.90;;;;;;5062835;28;20480;-34
2022/09/01 03:29:23;;;;;;;1.70;1.30;;;15.30;99.90;;;;;;5061991;28;20021;-37
2022/09/01 03:31:49;;;;;;;1.00;0.90;;;15.30;99.90;;;;;;5055874;28;20123;-37
2022/09/01 03:34:22;;;;;;;3.90;1.45;;;15.30;99.90;;;;;;5059382;28;20052;-38
2022/09/01 03:36:50;;;;;;;1.40;1.10;;;15.30;99.90;;;;;;5068525;28;20040;-39
2022/09/01 03:39:17;;;;;;;2.15;1.30;;;15.30;99.90;;;;;;5071504;28;20041;-35
2022/09/01 03:41:43;;;;;;;1.30;0.97;;;15.30;99.90;;;;;;5068398;28;20021;-31
2022/09/01 03:44:13;;;;;;;4.43;1.30;;;15.30;99.90;;;;;;5064585;28;20294;-33
2022/09/01 03:46:39;;;;;;;1.25;1.15;;;15.30;99.90;;;;;;5065845;28;20481;-74
2022/09/01 03:49:13;;;;;;;3.83;1.20;;;15.30;99.90;;;;;;5065646;28;20025;-34
2022/09/01 03:51:41;;;;;;;2.28;1.10;;;15.20;99.90;;;;;;5058099;28;20094;-32
2022/09/01 03:54:08;;;;;;;1.85;1.15;;;15.20;99.90;;;;;;5065537;28;20520;-34
2022/09/01 03:56:34;;;;;;;3.17;1.00;;;15.20;99.90;;;;;;5053224;28;20374;-35
2022/09/01 03:59:00;;;;;;;1.85;1.17;;;15.20;99.90;;;;;;5064314;28;20036;-38
2022/09/01 04:01:28;;;;;;;1.27;1.17;;;15.20;99.90;;;;;;5065448;28;20029;-38
2022/09/01 04:03:54;;;;;;;1.15;1.05;;;15.20;99.90;;;;;;5065266;28;20467;-47
2022/09/01 04:06:22;;;;;;;2.30;1.50;;;15.10;99.90;;;;;;5065075;28;20111;-46
2022/09/01 04:08:48;;;;;;;1.65;1.38;;;15.10;99.90;;;;;;5060606;28;20365;-35
2022/09/01 04:11:17;;;;;;;1.05;0.93;;;15.10;99.90;;;;;;5069797;28;20024;-39
2022/09/01 04:13:43;;;;;;;1.52;1.13;;;15.10;99.90;;;;;;5072499;28;20059;-38
2022/09/01 04:19:18;;;;;;;1.58;1.13;;;15.10;99.90;;;;;;5060420;28;20051;-39
2022/09/01 04:21:52;;;;;;;3.22;1.48;;;15.00;99.90;;;;;;5061736;28;20539;-42
2022/09/01 04:24:19;;;;;;;2.80;1.40;;;15.10;99.90;;;;;;5060502;28;20059;-37
2022/09/01 04:26:47;;;;;;;2.25;1.20;;;15.00;99.90;;;;;;5069039;28;20556;-39
2022/09/01 04:29:13;;;;;;;2.05;1.27;;;15.00;99.90;;;;;;5070825;28;20035;-37
2022/09/01 04:31:39;;;;;;;1.77;1.65;;;15.00;99.90;;;;;;5068104;28;20017;-37
2022/09/01 04:34:10;;;;;;;2.15;1.60;;;15.10;99.90;;;;;;5071603;28;20028;-37
2022/09/01 04:36:36;;;;;;;1.30;1.00;;;15.00;99.90;;;;;;5058865;28;20465;-36
2022/09/01 04:39:07;;;;;;;3.45;1.65;;;15.00;99.90;;;;;;5063992;28;20166;-35
2022/09/01 04:41:34;;;;;;;5.10;1.85;;;15.00;99.90;;;;;;5065826;28;20035;-39
2022/09/01 04:44:03;;;;;;;2.10;1.58;;;15.00;99.90;;;;;;5067874;28;20062;-35
2022/09/01 04:46:34;;;;;;;2.03;1.73;;;15.00;99.90;;;;;;5065588;28;20730;-34
2022/09/01 04:49:06;;;;;;;1.98;1.73;;;15.00;99.90;;;;;;5065639;28;20021;-37
2022/09/01 04:51:32;;;;;;;1.63;1.45;;;14.90;99.90;;;;;;5053724;28;20025;-32
2022/09/01 04:54:00;;;;;;;3.42;1.50;;;14.90;99.90;;;;;;5081109;28;20080;-38
2022/09/01 04:56:27;;;;;;;1.42;1.25;;;14.90;99.90;;;;;;5070332;28;20024;-39
2022/09/01 04:58:54;;;;;;;2.15;1.63;;;14.90;99.90;;;;;;5064759;28;20127;-38
2022/09/01 05:04:08;;;;;;;;;;;14.90;99.90;;;;;;5067378;28;20079;-38
2022/09/01 05:06:34;;;;;;;3.60;1.30;;;14.90;99.90;;;;;;5068688;28;20375;-41
2022/09/01 05:09:00;;;;;;;3.08;1.85;;;14.90;99.90;;;;;;5068227;28;20051;-35
2022/09/01 05:11:26;;;;;;;9.93;1.65;;;15.00;99.90;;;;;;5069346;28;20465;-45
2022/09/01 05:13:56;;;;;;;5.80;2.58;;;15.00;99.90;;;;;;5066494;28;20408;-38
2022/09/01 05:16:24;;;;;;;1.95;1.65;;;15.00;99.90;;;;;;5068623;28;20095;-37
2022/09/01 05:18:55;;;;;;;2.45;1.30;;;15.00;99.90;;;;;;5062022;28;20120;-39
2022/09/01 05:21:25;;;;;;;2.00;1.33;;;15.10;99.90;;;;;;5069392;28;20037;-38
2022/09/01 05:23:53;;;;;;;1.48;1.30;;;15.10;99.90;;;;;;5061637;28;20025;-37
2022/09/01 05:26:19;;;;;;;;;;;15.10;99.90;;;;;;5068753;28;20601;-44
2022/09/01 05:28:52;;;;;;;1.40;1.30;;;15.20;99.90;;;;;;5069777;28;20284;-38
2022/09/01 05:31:19;;;;;;;4.47;1.33;;;15.10;99.90;;;;;;5066910;28;20298;-39
2022/09/01 05:33:47;;;;;;;4.70;1.70;;;15.10;99.90;;;;;;5069703;28;20016;-38
2022/09/01 05:36:16;;;;;;;2.65;1.25;;;15.20;99.90;;;;;;5069434;28;20469;-37
2022/09/01 05:38:42;;;;;;;6.63;1.67;;;15.10;99.90;;;;;;5066951;28;20028;-37
2022/09/01 05:41:13;;;;;;;3.78;1.70;;;15.20;99.90;;;;;;5067459;28;20028;-34
2022/09/01 05:43:47;;;;;;;7.68;2.22;;;15.20;99.90;;;;;;5062883;28;20017;-33
2022/09/01 05:46:15;;;;;;;7.25;2.28;;;15.30;99.90;;;;;;5064103;28;20540;-34
2022/09/01 05:48:42;;;;;;;7.22;1.70;;;15.30;99.90;;;;;;5064930;28;20036;-36
2022/09/01 05:51:09;;;;;;;1.90;1.05;;;15.40;99.90;;;;;;5067430;28;20519;-33
2022/09/01 05:53:36;;;;;;;1.70;1.60;;;15.50;99.90;;;;;;5064745;28;20429;-33
2022/09/01 05:56:06;;;;;;;3.55;1.42;;;15.50;99.90;;;;;;5067390;28;20037;-33
2022/09/01 05:58:33;;;;;;;1.63;1.52;;;15.60;99.90;;;;;;5060021;28;20024;-32
2022/09/01 06:01:00;;;;;;;2.40;1.52;;;15.60;99.90;;;;;;5068586;28;20420;-34
2022/09/01 06:03:26;;;;;;;10.75;1.40;;;15.60;99.90;;;;;;5067525;28;20028;-34
2022/09/01 06:05:54;;;;;;;4.20;1.48;;;15.70;99.90;;;;;;5068823;28;20431;-35
2022/09/01 06:08:24;;;;;;;;;;;15.70;99.90;;;;;;5063101;28;20488;-34
2022/09/01 06:10:50;;;;;;;2.08;1.50;;;15.70;99.90;;;;;;5063800;28;19908;-35
2022/09/01 06:13:20;;;;;;;5.38;1.67;;;15.70;99.90;;;;;;5059728;28;20057;-41
2022/09/01 06:15:52;;;;;;;3.53;1.38;;;15.80;99.90;;;;;;5070294;28;20048;-36
2022/09/01 06:18:20;;;;;;;3.92;1.15;;;15.90;99.90;;;;;;5059805;28;20127;-33
2022/09/01 06:20:46;;;;;;;1.70;1.48;;;16.00;99.90;;;;;;5064993;28;20143;-35
2022/09/01 06:23:14;;;;;;;4.80;1.35;;;16.10;99.90;;;;;;5057334;28;20098;-33
2022/09/01 06:25:42;;;;;;;1.45;1.30;;;16.20;99.90;;;;;;5061853;28;20502;-35
2022/09/01 06:28:10;;;;;;;3.20;1.00;;;16.30;99.90;;;;;;5053436;28;20029;-33
2022/09/01 06:30:37;;;;;;;1.20;1.00;;;16.30;99.90;;;;;;5056394;28;20244;-31
2022/09/01 06:33:08;;;;;;;1.40;1.30;;;16.30;99.90;;;;;;5057107;28;20112;-33
2022/09/01 06:35:34;;;;;;;4.00;1.35;;;16.40;99.90;;;;;;5065112;28;20534;-34
2022/09/01 06:38:00;;;;;;;2.30;1.40;;;16.40;99.90;;;;;;5063293;28;20028;-32
2022/09/01 06:40:29;;;;;;;1.77;1.25;;;16.50;99.90;;;;;;5065824;28;20028;-33
2022/09/01 06:42:55;;;;;;;1.92;1.75;;;16.50;99.90;;;;;;5072418;28;20032;-38
2022/09/01 06:45:23;;;;;;;2.42;1.33;;;16.60;99.90;;;;;;5064617;28;20025;-33
2022/09/01 06:47:52;;;;;;;1.55;1.23;;;16.80;99.90;;;;;;5064177;28;20032;-33
2022/09/01 06:50:23;;;;;;;6.47;1.15;;;16.80;99.90;;;;;;5065338;28;20498;-37
2022/09/01 06:53:00;;;;;;;4.95;1.73;;;17.00;99.90;;;;;;5074082;28;20025;-33
2022/09/01 06:55:30;;;;;;;2.95;1.80;;;17.10;99.90;;;;;;5065880;28;20421;-37
2022/09/01 06:57:57;;;;;;;1.90;1.02;;;17.20;99.90;;;;;;5065259;28;20354;-34
2022/09/01 07:00:25;;;;;;;1.30;0.90;;;17.40;99.90;;;;;;5071488;28;20634;-34
2022/09/01 07:02:55;;;;;;;;;;;17.50;99.90;;;;;;5064736;28;20043;-35
2022/09/01 07:05:21;;;;;;;1.77;1.02;;;17.60;99.90;;;;;;5076451;28;19918;-37
2022/09/01 07:07:54;;;;;;;3.67;1.27;;;17.70;99.90;;;;;;5065505;28;20377;-32
2022/09/01 07:10:25;;;;;;;1.17;1.08;;;18.00;99.90;;;;;;5057584;28;20477;-35
2022/09/01 07:12:58;;;;;;;1.98;1.08;;;18.10;99.90;;;;;;5072522;28;20036;-35
2022/09/01 07:15:24;;;;;;;1.60;0.80;;;18.20;99.90;;;;;;5054522;28;20121;-34
2022/09/01 07:17:52;;;;;;;1.20;0.95;;;18.30;99.90;;;;;;5069490;28;20103;-34
2022/09/01 07:20:21;;;;;;;3.30;0.80;;;18.40;99.90;;;;;;5063853;28;20028;-40
2022/09/01 07:22:47;;;;;;;5.22;0.82;;;18.50;99.90;;;;;;5064263;28;20495;-34
2022/09/01 07:25:13;;;;;;;0.82;0.82;;;18.60;99.90;;;;;;5062175;28;20029;-31
2022/09/01 07:27:45;;;;;;;6.22;1.20;;;18.60;99.90;;;;;;5064718;28;20070;-39
2022/09/01 07:30:11;;;;;;;5.13;0.82;;;18.70;99.90;;;;;;5064106;28;20075;-31
2022/09/01 07:32:43;;;;;;;10.73;1.60;;;18.80;99.90;;;;;;5058754;28;20021;-39
2022/09/01 07:35:10;;;;;;;4.15;1.60;;;18.80;99.90;;;;;;5064064;28;20091;-35
2022/09/01 07:37:36;;;;;;;1.70;1.08;;;18.80;99.90;;;;;;5068104;28;20033;-33
2022/09/01 07:40:08;;;;;;;1.98;1.10;;;18.90;99.90;;;;;;5067432;28;20394;-30
2022/09/01 07:42:35;;;;;;;1.60;1.10;;;19.10;99.90;;;;;;5065759;28;20039;-33
2022/09/01 07:45:05;;;;;;;0.82;0.82;;;19.30;99.90;;;;;;5065640;28;20029;-37
2022/09/01 07:47:35;;;;;;;1.65;0.65;;;19.40;99.90;;;;;;5069549;28;20476;-37
2022/09/01 07:50:07;;;;;;;6.50;1.45;;;19.50;99.90;;;;;;5068400;28;20027;-30
2022/09/01 07:52:39;;;;;;;1.35;0.82;;;19.60;99.90;;;;;;5071450;28;20392;-37
2022/09/01 07:55:07;;;;;;;7.55;1.02;;;19.70;99.90;;;;;;5064097;28;20031;-33
2022/09/01 07:57:33;;;;;;;1.10;1.00;;;20.00;99.90;;;;;;5062788;28;20047;-31
2022/09/01 07:59:59;;;;;;;1.55;1.15;;;20.20;99.90;;;;;;5063096;28;20037;-38
2022/09/01 08:02:26;;;;;;;5.28;1.45;;;20.30;99.90;;;;;;5065014;28;20044;-32
2022/09/01 08:04:52;;;;;;;1.23;0.88;;;20.40;99.90;;;;;;5062251;28;20481;-31
2022/09/01 08:07:21;;;;;;;1.58;0.93;;;20.50;99.40;;;;;;5064795;28;20063;-31
2022/09/01 08:09:46;;;;;;;3.53;0.90;;;20.60;99.50;;;;;;5069628;28;20082;-34
2022/09/01 08:12:12;;;;;;;2.30;1.30;;;20.70;99.60;;;;;;5066077;28;20495;-33
2022/09/01 08:14:38;;;;;;;0.75;0.75;;;20.80;99.10;;;;;;5057863;28;20028;-36
2022/09/01 08:17:04;;;;;;;3.80;0.95;;;21.00;99.00;;;;;;5071298;28;20051;-31
2022/09/01 08:19:30;;;;;;;1.60;0.85;;;21.10;98.80;;;;;;5062726;28;20162;-34
2022/09/01 08:21:55;;;;;;;2.28;0.80;;;21.20;98.40;;;;;;5053181;28;20749;-32
2022/09/01 08:24:21;;;;;;;2.17;0.70;;;21.30;98.80;;;;;;5066899;28;20040;-34
2022/09/01 08:26:47;;;;;;;1.67;0.73;;;21.40;98.20;;;;;;5079434;28;20469;-32
2022/09/01 08:29:12;;;;;;;0.60;0.60;;;21.50;98.10;;;;;;5052690;28;20032;-31
2022/09/01 08:31:38;;;;;;;2.55;0.93;;;21.60;98.40;;;;;;5053629;28;20472;-34
2022/09/01 08:34:04;;;;;;;8.88;1.10;;;21.60;98.10;;;;;;5055518;28;20481;-34
2022/09/01 08:36:30;;;;;;;1.02;0.70;;;21.70;98.10;;;;;;5059998;28;20029;-36
2022/09/01 08:38:56;;;;;;;5.18;1.05;;;21.80;97.80;;;;;;5077276;28;20103;-32
2022/09/01 08:41:43;;;;;;;0.95;0.52;;;21.90;97.70;;;;;;5055907;28;20090;-34
2022/09/01 08:44:40;;;;;;;1.90;0.60;;;22.10;97.50;;;;;;5052395;28;20029;-38
2022/09/01 08:47:11;;;;;;;1.80;1.10;;;22.40;97.40;;;;;;5052293;28;20531;-36
2022/09/01 08:49:39;;;;;;;1.83;0.73;;;22.40;97.00;;;;;;5052321;28;20032;-30
2022/09/01 08:52:23;;;;;;;3.63;0.73;;;22.50;96.80;;;;;;5057747;28;20586;-31
2022/09/01 08:55:24;;;;;;;0.60;0.60;;;22.60;96.80;;;;;;5065868;28;20020;-30
2022/09/01 08:57:54;;;;;;;5.53;0.60;;;22.70;96.40;;;;;;5052483;28;20053;-48
2022/09/01 09:00:23;;;;;;;1.58;0.68;;;22.90;96.40;;;;;;5062742;28;20063;-40
2022/09/01 09:02:51;;;;;;;3.35;0.60;;;23.10;95.80;;;;;;5057519;28;20028;-33
2022/09/01 09:05:35;;;;;;;0.70;0.70;;;23.30;96.00;;;;;;5052241;28;20419;-35
2022/09/01 09:08:29;;;;;;;3.80;0.80;;;23.40;95.70;;;;;;5052381;28;20032;-32
2022/09/01 09:11:02;;;;;;;3.55;0.75;;;23.40;95.30;;;;;;5075830;28;20108;-35
2022/09/01 09:13:41;;;;;;;2.55;0.70;;;23.30;95.20;;;;;;5056961;28;20029;-30
2022/09/01 09:16:17;;;;;;;1.05;0.57;;;23.40;95.50;;;;;;5051917;28;20450;-31
2022/09/01 09:18:53;;;;;;;4.97;0.60;;;23.60;95.10;;;;;;5053943;28;20064;-34
2022/09/01 09:21:32;;;;;;;1.73;0.73;;;23.80;95.20;;;;;;5060542;28;20029;-35
2022/09/01 09:24:25;;;;;;;6.53;1.17;;;24.00;94.50;;;;;;5065716;28;20033;-32
2022/09/01 09:26:53;;;;;;;2.80;0.77;;;24.20;95.30;;;;;;5060702;28;20523;-35
2022/09/01 09:29:20;;;;;;;2.65;0.63;;;24.20;94.50;;;;;;5069402;28;20047;-33
2022/09/01 09:31:47;;;;;;;9.48;0.90;;;24.20;94.40;;;;;;5063803;28;20045;-34
2022/09/01 09:34:17;;;;;;;0.93;0.50;;;24.40;94.50;;;;;;5064467;28;20059;-30
2022/09/01 09:36:46;;;;;;;0.73;0.60;;;24.40;94.10;;;;;;5057248;28;20029;-33
2022/09/01 09:39:16;;;;;;;1.45;0.88;;;24.50;93.40;;;;;;5071708;28;20020;-34
2022/09/01 09:41:46;;;;;;;1.73;0.88;;;24.50;93.50;;;;;;5051212;28;20021;-30
2022/09/01 09:44:23;;;;;;;3.03;0.80;;;24.60;93.20;;;;;;5066631;28;20017;-32
2022/09/01 09:46:49;;;;;;;0.75;0.60;;;24.80;93.10;;;;;;5068136;28;20533;-32
2022/09/01 09:49:25;;;;;;;2.75;0.70;;;24.90;92.70;;;;;;5075027;28;20468;-31
2022/09/01 09:52:08;;;;;;;1.63;0.60;;;24.90;92.80;;;;;;5061783;28;20025;-38
2022/09/01 09:54:36;;;;;;;0.50;0.50;;;24.90;92.90;;;;;;5067158;28;20017;-38
2022/09/01 09:57:08;;;;;;;1.85;0.63;;;25.00;92.40;;;;;;5057282;28;20033;-38
2022/09/01 09:59:42;;;;;;;0.95;0.60;;;25.10;92.30;;;;;;5050485;28;20048;-40
2022/09/01 10:02:24;;;;;;;2.88;0.93;;;25.30;92.40;;;;;;5051750;28;20554;-40
2022/09/01 10:04:50;;;;;;;1.55;0.63;;;25.50;92.10;;;;;;5051375;28;20029;-37
2022/09/01 10:07:22;;;;;;;2.33;0.85;;;25.70;91.80;;;;;;5055348;28;20044;-36
2022/09/01 10:09:48;;;;;;;1.35;0.82;;;25.90;91.60;;;;;;5077449;28;20488;-38
2022/09/01 10:12:14;;;;;;;1.48;0.80;;;26.10;91.80;;;;;;5060206;28;20017;-39
2022/09/01 10:14:49;;;;;;;1.20;0.80;;;26.20;91.20;;;;;;5084916;28;20028;-36
2022/09/01 10:17:19;;;;;;;4.65;1.52;;;25.90;91.20;;;;;;5053589;28;20056;-39
2022/09/01 10:19:57;;;;;;;3.10;0.70;;;25.90;91.10;;;;;;5071916;28;20021;-37
2022/09/01 10:22:24;;;;;;;3.92;0.60;;;26.00;91.30;;;;;;5074296;28;20044;-41
2022/09/01 10:24:50;;;;;;;3.45;0.60;;;26.00;91.00;;;;;;5067166;28;20024;-38
2022/09/01 10:27:26;;;;;;;0.85;0.68;;;25.90;91.50;;;;;;5055465;28;20033;-42
2022/09/01 10:30:03;;;;;;;0.95;0.70;;;26.00;91.20;;;;;;5061473;28;20384;-39
2022/09/01 10:33:07;;;;;;;0.60;0.50;;;26.20;90.80;;;;;;5057210;28;20100;-38
2022/09/01 10:35:38;;;;;;;1.67;0.75;;;26.70;88.30;;;;;;5068292;28;20051;-40
2022/09/01 10:38:08;;;;;;;1.00;0.55;;;26.90;88.80;;;;;;5064774;28;20071;-39
2022/09/01 10:40:44;;;;;;;0.80;0.63;;;27.00;89.30;;;;;;5066057;28;20473;-40
2022/09/01 10:43:35;;;;;;;1.00;0.75;;;26.90;89.90;;;;;;5057881;28;20424;-38
2022/09/01 10:46:19;;;;;;;0.88;0.70;;;27.10;87.90;;;;;;5075327;28;20040;-38
2022/09/01 10:48:57;;;;;;;1.35;0.57;;;26.90;89.60;;;;;;5054706;28;20020;-38
2022/09/01 10:51:23;;;;;;;4.43;1.40;;;26.60;88.60;;;;;;5068877;28;20046;-38
2022/09/01 10:53:50;;;;;;;7.13;0.43;;;26.40;89.10;;;;;;5065047;28;20024;-37
2022/09/01 10:56:27;;;;;;;3.05;0.55;;;26.70;87.80;;;;;;5073421;28;20024;-37
2022/09/01 10:59:05;;;;;;;0.57;0.45;;;26.80;87.20;;;;;;5054473;28;20025;-41
2022/09/01 11:01:39;;;;;;;2.65;0.60;;;26.80;86.30;;;;;;5056176;28;20040;-41
2022/09/01 11:04:07;;;;;;;1.70;0.50;;;26.80;87.40;;;;;;5062497;28;20029;-37
2022/09/01 11:06:52;;;;;;;2.67;0.43;;;26.80;87.00;;;;;;5054460;28;20040;-32
2022/09/01 11:09:43;;;;;;;6.15;0.30;;;26.80;86.90;;;;;;5057382;28;20013;-44
2022/09/01 11:12:29;;;;;;;3.60;0.57;;;26.80;86.20;;;;;;5053156;28;20021;-38
2022/09/01 11:15:00;;;;;;;1.35;0.55;;;26.80;87.00;;;;;;5054434;28;20352;-40
2022/09/01 11:17:32;;;;;;;1.55;0.93;;;26.90;86.70;;;;;;5065286;28;20029;-38
2022/09/01 11:20:07;;;;;;;0.30;0.30;;;26.90;86.70;;;;;;5065486;28;20033;-38
2022/09/01 11:22:37;;;;;;;3.80;0.60;;;26.90;86.90;;;;;;5067931;28;20481;-38
2022/09/01 11:25:34;;;;;;;3.95;0.75;;;26.80;86.30;;;;;;5074966;28;20029;-39
2022/09/01 11:28:13;;;;;;;1.08;0.45;;;26.50;85.50;;;;;;5073502;28;20468;-40
2022/09/01 11:30:54;;;;;;;4.60;0.50;;;26.00;86.20;;;;;;5068983;28;20027;-44
2022/09/01 11:33:25;;;;;;;4.13;0.55;;;25.80;86.80;;;;;;5074044;28;20025;-37
2022/09/01 11:36:04;;;;;;;15.73;1.00;;;26.00;85.40;;;;;;5055790;28;20037;-38
2022/09/01 11:38:50;;;;;;;2.63;0.45;;;26.10;85.80;;;;;;5082932;28;20433;-39
2022/09/01 11:41:25;;;;;;;1.45;0.88;;;26.10;85.20;;;;;;5053889;28;20033;-40
2022/09/01 11:43:56;;;;;;;0.60;0.60;;;26.20;84.60;;;;;;5057258;28;20020;-38
2022/09/01 11:46:33;;;;;;;4.57;0.70;;;26.50;86.00;;;;;;5072344;28;20016;-39
2022/09/01 11:49:21;;;;;;;1.65;0.68;;;26.50;85.10;;;;;;5056343;28;20021;-50
2022/09/01 11:51:47;;;;;;;5.32;0.50;;;26.50;85.30;;;;;;5052466;28;20353;-39
2022/09/01 11:54:14;;;;;;;3.75;0.70;;;26.60;84.70;;;;;;5058882;28;20492;-40
2022/09/01 11:56:40;;;;;;;1.17;1.05;;;26.80;85.00;;;;;;5060422;28;20017;-49
2022/09/01 11:59:06;;;;;;;1.13;0.50;;;27.10;83.60;;;;;;5077109;28;20074;-42
2022/09/01 12:01:35;;;;;;;0.57;0.50;;;27.30;83.70;;;;;;5059327;28;20099;-39
2022/09/01 12:04:21;;;;;;;0.65;0.52;;;27.10;82.70;;;;;;5068682;28;20020;-42
2022/09/01 12:06:53;;;;;;;3.83;0.50;;;27.10;81.40;;;;;;5071306;28;20024;-40
2022/09/01 12:09:19;;;;;;;1.10;0.45;;;27.00;82.50;;;;;;5070578;28;20389;-41
2022/09/01 12:11:45;;;;;;;1.40;0.70;;;27.10;82.50;;;;;;5071665;28;20029;-38
2022/09/01 12:14:19;;;;;;;1.38;0.40;;;27.30;82.20;;;;;;5069438;28;20078;-38
2022/09/01 12:17:04;;;;;;;0.50;0.40;;;27.50;81.70;;;;;;5082052;28;20568;-40
2022/09/01 12:19:37;;;;;;;0.77;0.50;;;27.60;82.20;;;;;;5062653;28;20469;-40
2022/09/01 12:22:23;;;;;;;1.02;0.60;;;27.60;80.20;;;;;;5068440;28;20496;-38
2022/09/01 12:24:52;;;;;;;0.50;0.40;;;27.60;79.80;;;;;;5062878;28;20025;-41
2022/09/01 12:27:19;;;;;;;5.22;0.45;;;27.60;79.30;;;;;;5063704;28;20020;-38
2022/09/01 12:29:45;;;;;;;0.52;0.40;;;27.60;80.10;;;;;;5069303;28;20099;-39
2022/09/01 12:32:13;;;;;;;1.23;0.57;;;27.60;78.90;;;;;;5070853;28;20013;-39
2022/09/01 12:34:57;;;;;;;3.17;0.43;;;27.70;77.10;;;;;;5071241;28;20514;-41
2022/09/01 12:37:26;;;;;;;1.48;0.50;;;27.70;78.30;;;;;;5065946;28;20074;-42
2022/09/01 12:39:57;;;;;;;1.85;1.23;;;27.70;79.30;;;;;;5066969;28;20096;-39
2022/09/01 12:42:29;;;;;;;1.58;0.55;;;27.70;79.80;;;;;;5070684;28;20052;-43
2022/09/01 12:45:06;;;;;;;0.47;0.47;;;27.80;80.40;;;;;;5065800;28;20036;-40
2022/09/01 12:47:35;;;;;;;1.65;0.73;;;27.80;79.60;;;;;;5065639;28;20048;-40
2022/09/01 12:50:26;;;;;;;0.90;0.68;;;27.50;79.20;;;;;;5055334;28;20504;-40
2022/09/01 12:52:54;;;;;;;1.10;0.38;;;27.60;79.50;;;;;;5064973;28;20473;-40
2022/09/01 12:55:22;;;;;;;0.73;0.60;;;27.80;79.20;;;;;;5070589;28;20075;-68
2022/09/01 12:57:57;;;;;;;0.30;0.30;;;27.90;78.70;;;;;;5071852;28;20047;-40
2022/09/01 13:00:30;;;;;;;0.68;0.47;;;28.00;78.50;;;;;;5070006;28;20044;-39
2022/09/01 13:03:02;;;;;;;1.25;0.40;;;27.90;78.40;;;;;;5067849;28;20102;-42
2022/09/01 13:05:39;;;;;;;0.98;0.80;;;28.00;78.70;;;;;;5056615;28;20472;-41
2022/09/01 13:08:11;;;;;;;0.80;0.50;;;28.10;78.40;;;;;;5068755;28;20354;-41
2022/09/01 13:10:43;;;;;;;0.55;0.40;;;28.10;78.60;;;;;;5082430;28;20050;-39
2022/09/01 13:13:10;;;;;;;4.05;0.40;;;28.20;79.10;;;;;;5074610;28;20473;-43
2022/09/01 13:15:37;;;;;;;;;;;28.30;78.50;;;;;;5069243;28;20024;-40
2022/09/01 13:18:03;;;;;;;;;;;28.30;79.00;;;;;;5076655;28;19909;-41